Time;durP1;ratioP1;P1;durP2;ratioP2;P2;SDS_P1;SDS_P2;PMS_P1;PMS_P2;Temp;Humidity;BMP_temperature;BMP_pressure;BME280_temperature;BME280_humidity;BME280_pressure;Samples;Min_cycle;Max_cycle;Signal;HPM_P1;HPM_P2
2023/01/21 00:00:12;;;;;;;12.05;6.35;;;;;;;;;;5032633;28;20025;-71
2023/01/21 00:02:38;;;;;;;11.05;5.85;;;;;;;;;;5035250;28;20413;-71
2023/01/21 00:05:04;;;;;;;10.98;5.45;;;;;;;;;;5030731;28;20017;-70
2023/01/21 00:07:30;;;;;;;15.23;7.43;;;;;;;;;;5032335;28;20108;-70
2023/01/21 00:09:55;;;;;;;23.45;10.73;;;;;;;;;;5031500;28;20117;-70
2023/01/21 00:12:21;;;;;;;16.48;8.80;;;;;;;;;;5032611;28;20040;-71
2023/01/21 00:14:46;;;;;;;19.33;11.13;;;;;;;;;;5032578;28;20506;-71
2023/01/21 00:17:12;;;;;;;17.00;9.68;;;;;;;;;;5020646;28;20152;-71
2023/01/21 00:19:38;;;;;;;20.00;10.15;;;;;;;;;;5031969;28;20056;-71
2023/01/21 00:22:03;;;;;;;17.10;9.50;;;;;;;;;;5032705;28;20459;-71
2023/01/21 00:24:29;;;;;;;15.80;9.80;;;;;;;;;;5032279;28;20029;-71
2023/01/21 00:26:55;;;;;;;16.40;8.90;;;;;;;;;;5032226;28;20033;-71
2023/01/21 00:29:20;;;;;;;18.05;8.90;;;;;;;;;;5031849;28;20021;-71
2023/01/21 00:31:47;;;;;;;12.18;6.72;;;;;;;;;;5031181;28;20147;-71
2023/01/21 00:34:13;;;;;;;24.25;9.65;;;;;;;;;;5030759;28;20029;-71
2023/01/21 00:36:39;;;;;;;11.65;6.28;;;;;;;;;;5030327;28;20046;-70
2023/01/21 00:39:06;;;;;;;9.80;6.18;;;;;;;;;;5025049;28;20077;-71
2023/01/21 00:41:32;;;;;;;12.30;6.57;;;;;;;;;;5028206;28;20501;-70
2023/01/21 00:43:58;;;;;;;13.63;6.70;;;;;;;;;;5031852;28;20116;-68
2023/01/21 00:46:24;;;;;;;11.43;5.80;;;;;;;;;;5032063;28;20124;-69
2023/01/21 00:48:49;;;;;;;24.27;7.53;;;;;;;;;;5030446;28;20017;-70
2023/01/21 00:51:15;;;;;;;13.65;7.93;;;;;;;;;;5029107;28;20076;-70
2023/01/21 00:53:41;;;;;;;18.92;8.30;;;;;;;;;;5022780;28;20022;-71
2023/01/21 00:56:09;;;;;;;12.90;7.80;;;;;;;;;;5029348;28;20033;-70
2023/01/21 00:58:35;;;;;;;15.05;8.23;;;;;;;;;;5031020;28;20488;-71
2023/01/21 01:01:07;;;;;;;14.80;8.13;;;;;;;;;;5030439;28;20072;-70
2023/01/21 01:03:33;;;;;;;9.57;6.05;;;;;;;;;;5030995;28;20063;-70
2023/01/21 01:06:05;;;;;;;13.18;6.82;;;;;;;;;;5029808;28;20025;-69
2023/01/21 01:08:31;;;;;;;11.13;6.13;;;;;;;;;;5032186;28;20029;-70
2023/01/21 01:10:57;;;;;;;8.77;5.03;;;;;;;;;;5030595;28;20034;-70
2023/01/21 01:13:23;;;;;;;7.28;4.50;;;;;;;;;;5032076;28;20026;-70
2023/01/21 01:15:51;;;;;;;9.15;4.97;;;;;;;;;;5029246;28;20026;-70
2023/01/21 01:18:17;;;;;;;7.75;4.70;;;;;;;;;;5030853;28;20067;-70
2023/01/21 01:20:43;;;;;;;9.02;5.40;;;;;;;;;;5030297;28;20061;-70
2023/01/21 01:23:09;;;;;;;11.63;7.50;;;;;;;;;;5030754;28;20040;-70
2023/01/21 01:25:36;;;;;;;16.02;8.93;;;;;;;;;;5030446;28;20036;-69
2023/01/21 01:28:03;;;;;;;22.23;10.70;;;;;;;;;;5022591;28;20041;-69
2023/01/21 01:30:29;;;;;;;17.52;7.40;;;;;;;;;;5025655;28;20030;-71
2023/01/21 01:32:55;;;;;;;17.73;7.70;;;;;;;;;;5028353;28;20037;-70
2023/01/21 01:35:21;;;;;;;10.98;6.53;;;;;;;;;;5030578;28;20055;-69
2023/01/21 01:37:47;;;;;;;13.52;7.18;;;;;;;;;;5030795;28;20033;-69
2023/01/21 01:40:13;;;;;;;7.28;4.70;;;;;;;;;;5031159;28;20033;-71
2023/01/21 01:42:39;;;;;;;5.18;3.08;;;;;;;;;;5033348;28;20037;-69
2023/01/21 01:45:11;;;;;;;8.95;3.50;;;;;;;;;;5033673;28;20037;-70
2023/01/21 01:47:45;;;;;;;6.10;2.73;;;;;;;;;;5034230;28;20037;-70
2023/01/21 01:50:16;;;;;;;5.95;2.67;;;;;;;;;;5034633;28;20048;-69
2023/01/21 01:52:43;;;;;;;6.07;3.35;;;;;;;;;;5034960;28;20037;-70
2023/01/21 01:55:10;;;;;;;10.90;3.00;;;;;;;;;;5034945;28;20029;-71
2023/01/21 01:57:45;;;;;;;6.63;2.72;;;;;;;;;;5035080;28;20490;-70
2023/01/21 02:00:12;;;;;;;5.43;2.70;;;;;;;;;;5034087;28;20034;-71
2023/01/21 02:02:39;;;;;;;4.53;2.70;;;;;;;;;;5033165;28;20031;-69
2023/01/21 02:05:09;;;;;;;7.15;2.53;;;;;;;;;;5035097;28;20038;-70
2023/01/21 02:07:41;;;;;;;4.45;2.33;;;;;;;;;;5033941;28;20226;-69
2023/01/21 02:10:09;;;;;;;7.20;2.80;;;;;;;;;;5026704;28;20034;-69
2023/01/21 02:12:37;;;;;;;5.63;2.47;;;;;;;;;;5017342;28;20048;-70
2023/01/21 02:15:03;;;;;;;5.18;2.42;;;;;;;;;;5034302;28;20068;-70
2023/01/21 02:17:52;;;;;;;5.90;2.63;;;;;;;;;;5034129;28;20112;-70
2023/01/21 02:20:27;;;;;;;5.30;2.47;;;;;;;;;;5033817;28;20513;-70
2023/01/21 02:23:16;;;;;;;5.88;2.72;;;;;;;;;;5034592;28;20048;-70
2023/01/21 02:25:44;;;;;;;5.20;2.80;;;;;;;;;;5034388;28;20044;-70
2023/01/21 02:28:28;;;;;;;7.63;3.00;;;;;;;;;;5034517;28;20030;-70
2023/01/21 02:30:59;;;;;;;;;;;;;;;;;;5031475;28;20037;-70
2023/01/21 02:33:34;;;;;;;4.90;2.40;;;;;;;;;;5029159;28;19923;-70
2023/01/21 02:36:25;;;;;;;10.27;2.63;;;;;;;;;;5034033;28;20053;-71
2023/01/21 02:39:21;;;;;;;9.25;2.60;;;;;;;;;;5033929;28;20423;-70
2023/01/21 02:41:53;;;;;;;6.18;2.88;;;;;;;;;;5034248;28;20036;-70
2023/01/21 02:44:37;;;;;;;8.27;3.10;;;;;;;;;;5033951;28;20088;-69
2023/01/21 02:47:26;;;;;;;5.93;2.63;;;;;;;;;;5013965;28;20034;-70
2023/01/21 02:50:02;;;;;;;9.02;2.70;;;;;;;;;;4995900;28;20121;-71
2023/01/21 02:52:28;;;;;;;9.98;2.80;;;;;;;;;;5028260;28;20384;-70
2023/01/21 02:54:56;;;;;;;5.55;2.33;;;;;;;;;;5033187;28;20033;-70
2023/01/21 02:57:46;;;;;;;4.60;2.38;;;;;;;;;;5033886;28;20454;-70
2023/01/21 03:00:24;;;;;;;5.50;2.33;;;;;;;;;;5033008;28;20033;-70
2023/01/21 03:03:18;;;;;;;6.93;2.65;;;;;;;;;;5033677;28;20037;-69
2023/01/21 03:06:11;;;;;;;4.30;2.58;;;;;;;;;;5033755;28;20075;-70
2023/01/21 03:08:50;;;;;;;5.40;2.13;;;;;;;;;;5014142;28;20049;-69
2023/01/21 03:11:20;;;;;;;6.15;2.20;;;;;;;;;;5014405;28;20475;-71
2023/01/21 03:16:57;;;;;;;7.03;2.00;;;;;;;;;;5025342;28;20399;-71
2023/01/21 03:19:33;;;;;;;7.10;2.20;;;;;;;;;;5031647;28;20033;-70
2023/01/21 03:22:03;;;;;;;4.85;2.08;;;;;;;;;;5033841;28;20035;-71
2023/01/21 03:24:30;;;;;;;7.55;2.53;;;;;;;;;;5033351;28;20104;-70
2023/01/21 03:26:58;;;;;;;5.78;2.60;;;;;;;;;;5033254;28;20091;-70
2023/01/21 03:29:29;;;;;;;6.07;2.55;;;;;;;;;;5032869;28;20029;-70
2023/01/21 03:32:05;;;;;;;8.32;2.88;;;;;;;;;;5031163;28;20120;-71
2023/01/21 03:34:35;;;;;;;8.43;2.72;;;;;;;;;;5013186;28;20041;-70
2023/01/21 03:37:13;;;;;;;10.38;3.67;;;;;;;;;;5013792;28;20044;-70
2023/01/21 03:39:51;;;;;;;10.57;3.88;;;;;;;;;;5013324;28;20438;-70
2023/01/21 03:42:17;;;;;;;6.10;2.70;;;;;;;;;;5013788;28;20037;-70
2023/01/21 03:44:44;;;;;;;8.23;3.63;;;;;;;;;;5013431;28;20030;-69
2023/01/21 03:47:27;;;;;;;8.20;4.10;;;;;;;;;;5013510;28;20415;-70
2023/01/21 03:50:00;;;;;;;9.35;2.95;;;;;;;;;;5013173;28;20030;-70
2023/01/21 03:52:28;;;;;;;5.07;2.40;;;;;;;;;;5013682;28;20453;-70
2023/01/21 03:54:54;;;;;;;4.00;1.55;;;;;;;;;;5015429;28;20029;-70
2023/01/21 03:57:20;;;;;;;4.55;1.73;;;;;;;;;;5032033;28;20074;-69
2023/01/21 03:59:45;;;;;;;8.80;1.95;;;;;;;;;;5032860;28;20029;-70
2023/01/21 04:02:11;;;;;;;6.85;2.33;;;;;;;;;;5032917;28;20021;-69
2023/01/21 04:04:37;;;;;;;6.88;1.88;;;;;;;;;;5032653;28;20489;-71
2023/01/21 04:07:03;;;;;;;5.43;2.13;;;;;;;;;;5023922;28;20391;-70
2023/01/21 04:09:28;;;;;;;5.20;1.95;;;;;;;;;;5032781;28;20029;-70
2023/01/21 04:11:54;;;;;;;5.70;2.10;;;;;;;;;;5032705;28;20033;-70
2023/01/21 04:14:20;;;;;;;4.93;2.20;;;;;;;;;;5033064;28;20017;-70
2023/01/21 04:16:46;;;;;;;6.03;2.60;;;;;;;;;;5032748;28;20048;-70
2023/01/21 04:19:11;;;;;;;6.70;1.88;;;;;;;;;;5032332;28;20025;-70
2023/01/21 04:21:37;;;;;;;8.02;1.70;;;;;;;;;;5032180;28;20446;-70
2023/01/21 04:24:03;;;;;;;8.10;2.08;;;;;;;;;;5032225;28;20420;-69
2023/01/21 04:26:29;;;;;;;8.23;2.80;;;;;;;;;;5032901;28;20025;-69
2023/01/21 04:28:54;;;;;;;5.72;2.50;;;;;;;;;;5032504;28;20036;-69
2023/01/21 04:31:20;;;;;;;4.90;1.85;;;;;;;;;;5032579;28;20040;-70
2023/01/21 04:33:45;;;;;;;6.28;2.90;;;;;;;;;;5032166;28;20029;-70
2023/01/21 04:36:12;;;;;;;6.80;2.80;;;;;;;;;;5037456;28;20033;-70
2023/01/21 04:38:38;;;;;;;9.68;2.95;;;;;;;;;;5015109;28;20084;-70
2023/01/21 04:41:04;;;;;;;7.07;2.80;;;;;;;;;;5032205;28;20065;-69
2023/01/21 04:43:29;;;;;;;4.93;2.50;;;;;;;;;;5032043;28;20025;-69
2023/01/21 04:45:55;;;;;;;6.30;2.47;;;;;;;;;;5032229;28;20433;-69
2023/01/21 04:48:20;;;;;;;9.45;4.13;;;;;;;;;;5032107;28;20498;-69
2023/01/21 04:50:46;;;;;;;6.65;2.55;;;;;;;;;;5030703;28;20041;-70
2023/01/21 04:53:12;;;;;;;7.35;2.65;;;;;;;;;;5032184;28;20433;-70
2023/01/21 04:55:38;;;;;;;5.68;2.20;;;;;;;;;;5031635;28;20044;-70
2023/01/21 04:58:03;;;;;;;5.43;2.22;;;;;;;;;;5012239;28;20391;-69
2023/01/21 05:00:29;;;;;;;6.10;2.33;;;;;;;;;;5011995;28;20034;-69
2023/01/21 05:02:55;;;;;;;7.53;3.20;;;;;;;;;;5011811;28;20075;-70
2023/01/21 05:05:21;;;;;;;10.25;4.70;;;;;;;;;;5011921;28;20053;-70
2023/01/21 05:07:46;;;;;;;8.57;4.15;;;;;;;;;;5011710;28;20492;-69
2023/01/21 05:10:16;;;;;;;7.10;3.88;;;;;;;;;;5011444;28;20133;-69
2023/01/21 05:12:42;;;;;;;7.55;4.07;;;;;;;;;;5011761;28;20496;-70
2023/01/21 05:15:08;;;;;;;9.02;4.10;;;;;;;;;;5011789;28;20045;-70
2023/01/21 05:17:34;;;;;;;7.22;3.90;;;;;;;;;;5011455;28;20030;-69
2023/01/21 05:20:00;;;;;;;10.98;4.63;;;;;;;;;;5011820;28;20029;-71
2023/01/21 05:22:25;;;;;;;9.77;4.40;;;;;;;;;;5012024;28;20033;-70
2023/01/21 05:24:51;;;;;;;11.90;5.20;;;;;;;;;;5012702;28;20484;-70
2023/01/21 05:27:18;;;;;;;10.80;5.38;;;;;;;;;;5012826;28;20438;-70
2023/01/21 05:29:44;;;;;;;12.88;5.80;;;;;;;;;;5012046;28;20024;-70
2023/01/21 05:32:10;;;;;;;10.43;5.20;;;;;;;;;;5012372;28;20034;-69
2023/01/21 05:34:35;;;;;;;12.15;5.55;;;;;;;;;;5012433;28;20095;-70
2023/01/21 05:37:01;;;;;;;16.25;9.20;;;;;;;;;;5012440;28;20053;-70
2023/01/21 05:39:26;;;;;;;13.10;6.43;;;;;;;;;;5011561;28;20017;-69
2023/01/21 05:41:52;;;;;;;10.55;6.28;;;;;;;;;;5011686;28;20041;-69
2023/01/21 05:44:18;;;;;;;18.77;11.68;;;;;;;;;;5011653;28;20045;-70
2023/01/21 05:46:43;;;;;;;15.70;7.88;;;;;;;;;;5011416;28;20034;-70
2023/01/21 05:49:09;;;;;;;14.32;9.10;;;;;;;;;;5011422;28;20479;-69
2023/01/21 05:51:35;;;;;;;14.00;8.25;;;;;;;;;;5011483;28;20034;-69
2023/01/21 05:54:00;;;;;;;14.45;6.78;;;;;;;;;;5011581;28;20064;-69
2023/01/21 05:56:26;;;;;;;20.45;7.20;;;;;;;;;;5027080;28;20435;-69
2023/01/21 05:58:52;;;;;;;11.80;6.30;;;;;;;;;;5021215;28;20487;-70
2023/01/21 06:01:17;;;;;;;14.65;5.60;;;;;;;;;;5009401;28;20058;-70
2023/01/21 06:03:43;;;;;;;14.13;5.20;;;;;;;;;;5022222;28;20053;-70
2023/01/21 06:06:08;;;;;;;13.60;5.57;;;;;;;;;;5021498;28;20106;-70
2023/01/21 06:08:34;;;;;;;16.08;7.05;;;;;;;;;;5025325;28;20075;-71
2023/01/21 06:11:00;;;;;;;11.30;5.65;;;;;;;;;;5027835;28;20030;-69
2023/01/21 06:13:25;;;;;;;12.13;4.97;;;;;;;;;;5031136;28;20478;-70
2023/01/21 06:15:55;;;;;;;10.52;4.40;;;;;;;;;;5030769;28;20088;-70
2023/01/21 06:18:21;;;;;;;10.38;4.45;;;;;;;;;;5025503;28;20029;-70
2023/01/21 06:20:47;;;;;;;10.43;4.60;;;;;;;;;;5011010;28;20152;-70
2023/01/21 06:23:13;;;;;;;12.68;4.95;;;;;;;;;;5011192;28;20023;-70
2023/01/21 06:25:39;;;;;;;18.17;7.38;;;;;;;;;;5011112;28;20087;-71
2023/01/21 06:28:05;;;;;;;13.40;7.07;;;;;;;;;;5018703;28;20175;-70
2023/01/21 06:30:31;;;;;;;14.88;8.15;;;;;;;;;;5033127;28;20067;-70
2023/01/21 06:32:57;;;;;;;17.75;10.75;;;;;;;;;;5034408;28;20123;-70
2023/01/21 06:35:23;;;;;;;17.70;10.80;;;;;;;;;;5034326;28;20038;-70
2023/01/21 06:37:49;;;;;;;15.52;8.52;;;;;;;;;;5036005;28;20099;-70
2023/01/21 06:40:15;;;;;;;15.90;8.05;;;;;;;;;;5037397;28;20045;-74
2023/01/21 06:42:40;;;;;;;13.23;6.75;;;;;;;;;;5026016;28;20021;-74
2023/01/21 06:45:07;;;;;;;12.88;7.30;;;;;;;;;;5033879;28;20037;-73
2023/01/21 06:47:32;;;;;;;16.08;6.78;;;;;;;;;;5033337;28;20064;-73
2023/01/21 06:49:58;;;;;;;15.20;7.22;;;;;;;;;;5033304;28;20521;-74
2023/01/21 06:52:23;;;;;;;12.02;7.90;;;;;;;;;;5032431;28;20029;-73
2023/01/21 06:54:49;;;;;;;20.00;9.40;;;;;;;;;;5033555;28;20163;-75
2023/01/21 06:57:15;;;;;;;19.25;8.30;;;;;;;;;;5033377;28;20056;-74
2023/01/21 06:59:40;;;;;;;21.75;9.15;;;;;;;;;;5033157;28;20071;-74
2023/01/21 07:02:06;;;;;;;17.90;8.48;;;;;;;;;;5028755;28;20513;-75
2023/01/21 07:04:32;;;;;;;18.75;8.73;;;;;;;;;;5025825;28;20494;-73
2023/01/21 07:06:58;;;;;;;20.15;9.15;;;;;;;;;;5025454;28;20017;-74
2023/01/21 07:09:23;;;;;;;15.57;8.82;;;;;;;;;;5031515;28;20034;-74
2023/01/21 07:11:49;;;;;;;18.70;9.90;;;;;;;;;;5031347;28;20322;-74
2023/01/21 07:14:15;;;;;;;22.45;10.73;;;;;;;;;;5031109;28;20071;-73
2023/01/21 07:16:41;;;;;;;18.90;10.07;;;;;;;;;;5023522;28;20026;-72
2023/01/21 07:19:08;;;;;;;22.63;11.00;;;;;;;;;;5029511;28;20064;-73
2023/01/21 07:21:33;;;;;;;22.95;10.68;;;;;;;;;;5027780;28;20310;-74
2023/01/21 07:23:59;;;;;;;18.45;9.10;;;;;;;;;;5028513;28;20049;-76
2023/01/21 07:26:25;;;;;;;16.17;8.65;;;;;;;;;;5024776;28;20100;-75
2023/01/21 07:32:14;;;;;;;14.75;8.90;;;;;;;;;;4986349;28;20054;-72
2023/01/21 07:34:39;;;;;;;21.85;9.00;;;;;;;;;;4985389;28;20113;-73
2023/01/21 07:37:05;;;;;;;14.48;8.25;;;;;;;;;;4989483;28;20031;-71
2023/01/21 07:39:31;;;;;;;21.33;9.45;;;;;;;;;;4983811;28;20475;-71
2023/01/21 07:41:56;;;;;;;15.60;8.48;;;;;;;;;;4991389;28;20042;-73
2023/01/21 07:44:25;;;;;;;18.70;9.40;;;;;;;;;;4996180;28;20470;-72
2023/01/21 07:46:51;;;;;;;14.35;8.70;;;;;;;;;;4985662;28;20129;-72
2023/01/21 07:49:17;;;;;;;17.83;9.77;;;;;;;;;;4985210;28;20038;-72
2023/01/21 07:51:47;;;;;;;20.98;10.77;;;;;;;;;;4977366;28;20078;-71
2023/01/21 07:54:13;;;;;;;18.30;10.35;;;;;;;;;;4991857;28;20117;-70
2023/01/21 07:56:39;;;;;;;21.67;9.73;;;;;;;;;;4990126;28;20101;-72
2023/01/21 07:59:05;;;;;;;23.08;11.30;;;;;;;;;;4990328;28;20049;-72
2023/01/21 08:01:32;;;;;;;16.95;9.40;;;;;;;;;;4987241;28;20498;-72
2023/01/21 08:03:58;;;;;;;17.10;9.98;;;;;;;;;;4994846;28;20038;-72
2023/01/21 08:06:25;;;;;;;18.33;8.57;;;;;;;;;;4988941;28;20046;-71
2023/01/21 08:08:50;;;;;;;24.23;9.90;;;;;;;;;;4983819;28;20506;-72
2023/01/21 08:11:16;;;;;;;17.23;10.00;;;;;;;;;;4983960;28;20038;-72
2023/01/21 08:13:43;;;;;;;22.27;10.90;;;;;;;;;;4987673;28;20042;-73
2023/01/21 08:16:12;;;;;;;23.35;11.20;;;;;;;;;;4985213;28;20108;-75
2023/01/21 08:18:38;;;;;;;26.15;13.55;;;;;;;;;;4991043;28;20034;-74
2023/01/21 08:21:04;;;;;;;18.80;11.00;;;;;;;;;;4978107;28;20043;-73
2023/01/21 08:23:30;;;;;;;21.52;10.63;;;;;;;;;;5004499;28;20105;-74
2023/01/21 08:26:02;;;;;;;19.10;9.23;;;;;;;;;;4982048;28;20066;-73
2023/01/21 08:28:27;;;;;;;18.77;9.98;;;;;;;;;;4986574;28;20035;-73
2023/01/21 08:30:53;;;;;;;19.65;10.07;;;;;;;;;;4991252;28;20049;-72
2023/01/21 08:33:19;;;;;;;19.25;10.43;;;;;;;;;;4993534;28;20134;-73
2023/01/21 08:35:48;;;;;;;16.73;9.68;;;;;;;;;;4981652;28;20031;-72
2023/01/21 08:38:14;;;;;;;16.23;9.07;;;;;;;;;;4979489;28;20030;-75
2023/01/21 08:40:40;;;;;;;18.45;9.25;;;;;;;;;;4971002;28;20388;-73
2023/01/21 08:43:07;;;;;;;30.80;17.25;;;;;;;;;;4991627;28;20040;-72
2023/01/21 08:45:33;;;;;;;25.83;13.48;;;;;;;;;;4976627;28;20022;-75
2023/01/21 08:48:01;;;;;;;18.05;9.13;;;;;;;;;;4979916;28;20411;-74
2023/01/21 08:50:27;;;;;;;19.05;8.95;;;;;;;;;;4997163;28;20501;-73
2023/01/21 08:52:54;;;;;;;15.48;9.05;;;;;;;;;;4981113;28;20070;-75
2023/01/21 08:55:23;;;;;;;16.02;7.43;;;;;;;;;;5006183;28;20034;-74
2023/01/21 08:57:50;;;;;;;13.70;6.72;;;;;;;;;;4975259;28;20042;-74
2023/01/21 09:00:17;;;;;;;17.77;7.65;;;;;;;;;;5006176;28;20022;-75
2023/01/21 09:02:43;;;;;;;15.55;7.32;;;;;;;;;;4975638;28;20500;-71
2023/01/21 09:05:09;;;;;;;14.85;6.75;;;;;;;;;;4981747;28;20110;-73
2023/01/21 09:07:35;;;;;;;11.07;5.75;;;;;;;;;;4980530;28;20054;-73
2023/01/21 09:10:02;;;;;;;13.60;7.20;;;;;;;;;;4981071;28;20065;-71
2023/01/21 09:12:28;;;;;;;9.68;6.03;;;;;;;;;;4986775;28;20038;-73
2023/01/21 09:14:54;;;;;;;18.30;6.95;;;;;;;;;;5003731;28;20480;-73
2023/01/21 09:17:21;;;;;;;22.52;8.70;;;;;;;;;;4991288;28;20484;-73
2023/01/21 09:19:47;;;;;;;20.52;9.40;;;;;;;;;;5001925;28;20030;-74
2023/01/21 09:22:14;;;;;;;17.48;7.80;;;;;;;;;;5000947;28;20077;-73
2023/01/21 09:24:39;;;;;;;15.85;8.18;;;;;;;;;;4985021;28;20042;-74
2023/01/21 09:27:06;;;;;;;21.70;8.80;;;;;;;;;;4979646;28;20042;-74
2023/01/21 09:29:32;;;;;;;16.73;9.15;;;;;;;;;;4976913;28;20100;-73
2023/01/21 09:31:58;;;;;;;17.83;8.07;;;;;;;;;;4988146;28;20042;-71
2023/01/21 09:34:25;;;;;;;19.25;6.88;;;;;;;;;;4991386;28;20383;-72
2023/01/21 09:36:51;;;;;;;14.07;6.07;;;;;;;;;;4988564;28;20088;-75
2023/01/21 09:39:17;;;;;;;18.88;7.30;;;;;;;;;;4979720;28;20114;-72
2023/01/21 09:41:45;;;;;;;15.98;7.82;;;;;;;;;;4972616;28;20038;-72
2023/01/21 09:44:19;;;;;;;19.20;7.15;;;;;;;;;;4972383;28;20030;-73
2023/01/21 09:46:57;;;;;;;13.23;7.40;;;;;;;;;;4972071;28;20046;-73
2023/01/21 09:49:31;;;;;;;14.45;6.70;;;;;;;;;;4985071;28;20408;-71
2023/01/21 09:52:19;;;;;;;13.77;6.25;;;;;;;;;;4972192;28;20421;-72
2023/01/21 09:54:44;;;;;;;13.25;6.32;;;;;;;;;;4986503;28;20077;-72
2023/01/21 09:57:32;;;;;;;12.00;5.47;;;;;;;;;;4972539;28;20027;-74
2023/01/21 10:00:35;;;;;;;15.48;8.30;;;;;;;;;;4971458;28;20084;-73
2023/01/21 10:03:07;;;;;;;21.93;11.90;;;;;;;;;;4972097;28;20031;-73
2023/01/21 10:05:51;;;;;;;17.85;9.65;;;;;;;;;;4975429;28;20477;-73
2023/01/21 10:08:30;;;;;;;20.13;9.73;;;;;;;;;;4974342;28;20129;-72
2023/01/21 10:11:22;;;;;;;18.40;8.35;;;;;;;;;;4985107;28;20034;-73
2023/01/21 10:14:19;;;;;;;14.95;9.25;;;;;;;;;;4990938;28;20034;-75
2023/01/21 10:17:05;;;;;;;13.95;8.40;;;;;;;;;;4974734;28;20125;-73
2023/01/21 10:19:56;;;;;;;23.15;9.05;;;;;;;;;;4976019;28;20039;-74
2023/01/21 10:22:26;;;;;;;15.93;7.63;;;;;;;;;;4988320;28;20054;-72
2023/01/21 10:24:59;;;;;;;17.50;7.18;;;;;;;;;;4989961;28;20062;-73
2023/01/21 10:27:26;;;;;;;12.73;6.20;;;;;;;;;;4975212;28;20035;-73
2023/01/21 10:29:57;;;;;;;14.82;4.38;;;;;;;;;;4975289;28;20023;-74
2023/01/21 10:32:26;;;;;;;11.10;4.13;;;;;;;;;;4975438;28;20420;-73
2023/01/21 10:34:54;;;;;;;15.70;4.82;;;;;;;;;;4975417;28;20027;-73
2023/01/21 10:37:44;;;;;;;10.07;4.80;;;;;;;;;;4975238;28;20062;-74
2023/01/21 10:40:41;;;;;;;12.07;4.75;;;;;;;;;;4975585;28;20042;-74
2023/01/21 10:43:46;;;;;;;10.93;4.90;;;;;;;;;;4995982;28;20491;-73
2023/01/21 10:46:26;;;;;;;12.40;5.30;;;;;;;;;;4982120;28;20027;-73
2023/01/21 10:49:40;;;;;;;13.05;5.55;;;;;;;;;;5004331;28;20035;-74
2023/01/21 10:52:14;;;;;;;11.23;4.60;;;;;;;;;;4985970;28;20057;-73
2023/01/21 10:54:50;;;;;;;10.32;4.65;;;;;;;;;;4986094;28;20041;-72
2023/01/21 10:57:44;;;;;;;13.32;5.32;;;;;;;;;;4983089;28;20047;-73
2023/01/21 11:00:25;;;;;;;19.52;9.25;;;;;;;;;;4981352;28;20550;-73
2023/01/21 11:02:57;;;;;;;17.65;9.95;;;;;;;;;;4989700;28;20034;-73
2023/01/21 11:05:25;;;;;;;18.40;10.90;;;;;;;;;;4983278;28;20073;-75
2023/01/21 11:07:52;;;;;;;23.75;14.57;;;;;;;;;;4982658;28;20031;-74
2023/01/21 11:10:24;;;;;;;27.27;13.52;;;;;;;;;;4986807;28;20041;-76
2023/01/21 11:12:52;;;;;;;19.52;11.63;;;;;;;;;;4985428;28;20435;-76
2023/01/21 11:15:20;;;;;;;15.88;9.60;;;;;;;;;;4982147;28;20038;-76
2023/01/21 11:17:49;;;;;;;17.88;9.70;;;;;;;;;;5005583;28;20041;-76
2023/01/21 11:20:22;;;;;;;19.33;10.32;;;;;;;;;;4982276;28;20460;-74
2023/01/21 11:22:48;;;;;;;24.73;10.93;;;;;;;;;;4983019;28;20550;-76
2023/01/21 11:25:42;;;;;;;18.35;8.68;;;;;;;;;;4990373;28;20392;-72
2023/01/21 11:28:26;;;;;;;18.92;9.20;;;;;;;;;;4993969;28;20030;-74
2023/01/21 11:31:08;;;;;;;24.80;11.63;;;;;;;;;;4984388;28;20130;-74
2023/01/21 11:33:35;;;;;;;19.40;10.17;;;;;;;;;;4989662;28;20037;-75
2023/01/21 11:36:20;;;;;;;27.55;12.48;;;;;;;;;;5006582;28;20034;-73
2023/01/21 11:39:03;;;;;;;20.90;11.18;;;;;;;;;;4985454;28;20034;-74
2023/01/21 11:41:29;;;;;;;28.65;12.65;;;;;;;;;;4979994;28;20038;-74
2023/01/21 11:44:08;;;;;;;23.63;14.18;;;;;;;;;;4992083;28;20029;-74
2023/01/21 11:46:39;;;;;;;24.40;14.43;;;;;;;;;;4987870;28;20030;-74
2023/01/21 11:49:04;;;;;;;33.65;15.05;;;;;;;;;;4984684;28;20374;-75
2023/01/21 11:51:30;;;;;;;26.65;16.02;;;;;;;;;;4993201;28;20106;-74
2023/01/21 11:54:27;;;;;;;30.90;15.50;;;;;;;;;;4985248;28;20042;-75
2023/01/21 11:56:56;;;;;;;20.67;9.27;;;;;;;;;;4972403;28;20129;-75
2023/01/21 11:59:40;;;;;;;18.08;8.20;;;;;;;;;;4984924;28;20062;-75
2023/01/21 12:02:23;;;;;;;22.45;7.78;;;;;;;;;;4974361;28;20121;-75
2023/01/21 12:04:58;;;;;;;30.90;10.88;;;;;;;;;;4988502;28;20031;-73
2023/01/21 12:07:33;;;;;;;23.27;8.25;;;;;;;;;;4973995;28;20100;-75
2023/01/21 12:10:20;;;;;;;42.58;10.77;;;;;;;;;;4972646;28;20042;-75
2023/01/21 12:13:03;;;;;;;42.45;10.38;;;;;;;;;;4973437;28;20065;-76
2023/01/21 12:15:44;;;;;;;23.70;10.40;;;;;;;;;;4987606;28;20531;-75
2023/01/21 12:18:22;;;;;;;23.95;13.52;;;;;;;;;;4993596;28;20039;-75
2023/01/21 12:21:30;;;;;;;20.38;11.32;;;;;;;;;;4980718;28;20046;-74
2023/01/21 12:23:59;;;;;;;23.98;10.80;;;;;;;;;;4985514;28;20094;-76
2023/01/21 12:26:33;;;;;;;22.42;11.30;;;;;;;;;;4969614;28;20019;-73
2023/01/21 12:29:02;;;;;;;18.92;9.57;;;;;;;;;;4970663;28;20481;-75
2023/01/21 12:31:35;;;;;;;21.30;11.68;;;;;;;;;;4970232;28;20065;-75
2023/01/21 12:34:00;;;;;;;24.30;11.15;;;;;;;;;;4974404;28;20514;-73
2023/01/21 12:36:35;;;;;;;31.55;18.70;;;;;;;;;;4985412;28;20111;-73
2023/01/21 12:39:23;;;;;;;34.20;14.23;;;;;;;;;;4985164;28;20038;-72
2023/01/21 12:42:25;;;;;;;16.30;8.65;;;;;;;;;;4985271;28;20046;-74
2023/01/21 12:44:56;;;;;;;15.07;7.28;;;;;;;;;;4972765;28;20057;-75
2023/01/21 12:47:35;;;;;;;28.70;11.90;;;;;;;;;;4986067;28;20071;-79
2023/01/21 12:50:34;;;;;;;40.78;14.20;;;;;;;;;;4982748;28;20042;-75
2023/01/21 12:53:13;;;;;;;27.92;13.02;;;;;;;;;;4983129;28;20069;-75
2023/01/21 12:55:57;;;;;;;29.13;10.95;;;;;;;;;;4980496;28;20429;-76
2023/01/21 12:58:29;;;;;;;15.43;6.82;;;;;;;;;;4986674;28;20045;-76
2023/01/21 13:00:59;;;;;;;16.17;6.50;;;;;;;;;;4984485;28;20065;-77
2023/01/21 13:03:46;;;;;;;18.08;6.95;;;;;;;;;;5005813;28;20103;-76
2023/01/21 13:06:27;;;;;;;18.58;9.07;;;;;;;;;;4983895;28;20042;-77
2023/01/21 13:09:15;;;;;;;19.15;7.97;;;;;;;;;;4987633;28;20085;-74
2023/01/21 13:12:03;;;;;;;13.60;6.60;;;;;;;;;;4989532;28;20038;-75
2023/01/21 13:14:36;;;;;;;16.02;7.78;;;;;;;;;;4985813;28;20187;-74
2023/01/21 13:17:26;;;;;;;19.42;8.25;;;;;;;;;;4988503;28;20125;-77
2023/01/21 13:19:52;;;;;;;16.60;8.88;;;;;;;;;;4980324;28;20483;-74
2023/01/21 13:22:30;;;;;;;17.75;6.95;;;;;;;;;;4996202;28;20219;-75
2023/01/21 13:25:19;;;;;;;12.93;6.15;;;;;;;;;;4997926;28;20105;-75
2023/01/21 13:27:54;;;;;;;13.75;6.38;;;;;;;;;;4971006;28;20480;-74
2023/01/21 13:30:26;;;;;;;21.38;8.70;;;;;;;;;;4988287;28;20030;-75
2023/01/21 13:33:03;;;;;;;26.42;6.70;;;;;;;;;;4981554;28;20034;-77
2023/01/21 13:35:39;;;;;;;29.67;9.98;;;;;;;;;;4972531;28;20049;-76
2023/01/21 13:38:12;;;;;;;18.85;8.68;;;;;;;;;;4976773;28;20109;-76
2023/01/21 13:41:10;;;;;;;10.23;4.60;;;;;;;;;;4994066;28;20031;-75
2023/01/21 13:43:57;;;;;;;13.85;5.70;;;;;;;;;;4995753;28;20048;-75
2023/01/21 13:46:25;;;;;;;15.48;6.95;;;;;;;;;;4990951;28;20105;-75
2023/01/21 13:49:14;;;;;;;16.27;6.60;;;;;;;;;;4986642;28;20033;-77
2023/01/21 13:52:13;;;;;;;15.93;5.47;;;;;;;;;;5003939;28;20085;-76
2023/01/21 13:54:48;;;;;;;24.27;6.07;;;;;;;;;;4986767;28;20448;-77
2023/01/21 13:57:40;;;;;;;15.82;5.68;;;;;;;;;;4982347;28;20074;-76
2023/01/21 14:00:20;;;;;;;12.70;6.00;;;;;;;;;;4990640;28;20469;-78
2023/01/21 14:02:46;;;;;;;7.43;4.80;;;;;;;;;;4982567;28;20495;-75
2023/01/21 14:05:25;;;;;;;58.55;11.80;;;;;;;;;;4983928;28;20098;-76
2023/01/21 14:08:01;;;;;;;24.95;6.13;;;;;;;;;;4991066;28;20092;-75
2023/01/21 14:10:35;;;;;;;10.55;4.70;;;;;;;;;;4982904;28;20034;-75
2023/01/21 14:13:43;;;;;;;13.02;5.32;;;;;;;;;;4987857;28;20542;-75
2023/01/21 14:16:20;;;;;;;16.20;5.85;;;;;;;;;;4997488;28;20090;-76
2023/01/21 14:18:58;;;;;;;14.43;5.70;;;;;;;;;;5006629;28;20049;-75
2023/01/21 14:22:00;;;;;;;26.65;7.00;;;;;;;;;;5005042;28;20045;-76
2023/01/21 14:24:55;;;;;;;30.73;12.65;;;;;;;;;;5011340;28;20026;-74
2023/01/21 14:27:30;;;;;;;24.42;9.77;;;;;;;;;;5012853;28;20124;-75
2023/01/21 14:30:23;;;;;;;35.45;12.32;;;;;;;;;;5013360;28;20037;-76
2023/01/21 14:33:02;;;;;;;33.55;11.27;;;;;;;;;;5015443;28;20111;-75
2023/01/21 14:36:06;;;;;;;26.40;11.48;;;;;;;;;;5014600;28;20062;-76
2023/01/21 14:38:38;;;;;;;;;;;;;;;;;;5015412;28;20479;-76
2023/01/21 14:41:09;;;;;;;18.75;9.10;;;;;;;;;;5015451;28;20378;-75
2023/01/21 14:43:35;;;;;;;14.27;8.60;;;;;;;;;;5012351;28;20398;-73
2023/01/21 14:46:21;;;;;;;11.65;5.70;;;;;;;;;;5011743;28;20030;-75
2023/01/21 14:49:06;;;;;;;22.48;9.88;;;;;;;;;;5011904;28;20442;-75
2023/01/21 14:51:41;;;;;;;27.30;10.27;;;;;;;;;;5011884;28;20507;-76
2023/01/21 14:54:24;;;;;;;19.63;6.85;;;;;;;;;;4997213;28;20038;-75
2023/01/21 14:56:56;;;;;;;12.98;6.97;;;;;;;;;;4994550;28;20030;-75
2023/01/21 14:59:44;;;;;;;17.88;6.53;;;;;;;;;;4994591;28;20057;-75
2023/01/21 15:02:30;;;;;;;18.55;7.20;;;;;;;;;;5009295;28;20125;-75
2023/01/21 15:05:17;;;;;;;14.85;6.10;;;;;;;;;;4992991;28;20073;-75